Newtown, PA

8:21 AM EDT on March 28, 2017 (GMT -0400)
Trenton Mercer | | Change Station

Elev 210 ft 40.28 °N, 74.81 °W | Updated 28 minutes ago

Fog
Fog
45 °F
Feels Like 40 °F
N
9
Wind Variable Wind from ENE

Today
High -- | Low -- °F
--% Chance of Precip.
Yesterday
High -- | Low -- °F
Precip. -- in
Pressure 29.90 in
Visibility 0.5 miles
Clouds
Windchill 40 °F
Dew Point 45 °F
Humidity 100%
Rainfall 0.59 in
Snow Depth Not available.
6:49 AM 7:20 PM
New Moon, 0% visible
METAR KTTN 281153Z 07008KT 1/2SM FG VV002 07/07 A2991 RMK AO2 SLP124 60058 70075 T00720072 10094 20072 51003
Pressure 29.90 in
Visibility 0.5 miles
Clouds
Windchill 40 °F
Dew Point 45 °F
Humidity 100%
Rainfall 0.59 in
Snow Depth Not available.
6:49 AM 7:20 PM
New Moon, 0% visible
METAR KTTN 281153Z 07008KT 1/2SM FG VV002 07/07 A2991 RMK AO2 SLP124 60058 70075 T00720072 10094 20072 51003

Get Severe Weather Alerts

Thanks for signing up!

Be on the lookout for a verification email in your inbox.

You'll start receiving the daily forecast at 8 AM.

×

10-Day Weather Forecast

Almanac

Astronomy

Mar. 28, 2017 Rise Set
Actual Time
Civil Twilight
Nautical Twilight
Astronomical Twilight
Moon
Length of Visible Light
Length of Day
Tomorrow will be .
, % of the Moon is Illuminated

Today's Extremes

State Highs State Lows

Community

WunderPhotos

Upload Photos

1,962,540 photos uploaded!

WunderBlog® & News

Nearby

Air Quality

  Air Quality AQ Index Pollutant
Not available.

Snow Depth

Station Depth Elevation

Earthquake Activity

City Distance Mag. Time & Date
Minimum magnitude displayed is 2.5.

Earthquake Activity

City Distance Mag. Time & Date
Minimum magnitude displayed is 2.5.

Coastal Water Temperatures

Place Temperature

Stations

Nearby Weather Stations

Station Location Temp. Windchill Dew Point Humidity Wind Precip. Elev Updated Type
                   

Watches & Warnings

There are currently no watches in effect.